sensor_id;sensor_type;location;lat;lon;timestamp;temperature;humidity
21712;DHT22;11017;53.552;9.910;2023-04-29T00:00:08;10.80;99.90
21712;DHT22;11017;53.552;9.910;2023-04-29T00:02:35;10.80;99.90
21712;DHT22;11017;53.552;9.910;2023-04-29T00:05:03;10.50;99.90
21712;DHT22;11017;53.552;9.910;2023-04-29T00:07:30;10.60;99.90
21712;DHT22;11017;53.552;9.910;2023-04-29T00:09:58;10.70;99.90
21712;DHT22;11017;53.552;9.910;2023-04-29T00:12:26;10.70;99.90
21712;DHT22;11017;53.552;9.910;2023-04-29T00:14:54;10.80;99.90
21712;DHT22;11017;53.552;9.910;2023-04-29T00:17:21;10.70;99.90
21712;DHT22;11017;53.552;9.910;2023-04-29T00:19:48;10.80;99.90
21712;DHT22;11017;53.552;9.910;2023-04-29T00:22:15;10.70;99.90
21712;DHT22;11017;53.552;9.910;2023-04-29T00:24:43;10.60;99.90
21712;DHT22;11017;53.552;9.910;2023-04-29T00:27:11;10.80;99.90
21712;DHT22;11017;53.552;9.910;2023-04-29T00:29:38;10.80;99.90
21712;DHT22;11017;53.552;9.910;2023-04-29T00:32:04;10.80;99.90
21712;DHT22;11017;53.552;9.910;2023-04-29T00:34:32;10.80;99.90
21712;DHT22;11017;53.552;9.910;2023-04-29T00:36:59;10.80;99.90
21712;DHT22;11017;53.552;9.910;2023-04-29T00:39:26;10.80;99.90
21712;DHT22;11017;53.552;9.910;2023-04-29T00:41:52;10.70;99.90
21712;DHT22;11017;53.552;9.910;2023-04-29T00:44:21;10.70;99.90
21712;DHT22;11017;53.552;9.910;2023-04-29T00:46:47;10.60;99.90
21712;DHT22;11017;53.552;9.910;2023-04-29T00:49:14;10.60;99.90
21712;DHT22;11017;53.552;9.910;2023-04-29T00:51:41;10.60;99.90
21712;DHT22;11017;53.552;9.910;2023-04-29T00:54:10;10.60;99.90
21712;DHT22;11017;53.552;9.910;2023-04-29T00:56:38;10.60;99.90
21712;DHT22;11017;53.552;9.910;2023-04-29T00:59:07;10.50;99.90
21712;DHT22;11017;53.552;9.910;2023-04-29T01:01:36;10.50;99.90
21712;DHT22;11017;53.552;9.910;2023-04-29T01:04:04;10.50;99.90
21712;DHT22;11017;53.552;9.910;2023-04-29T01:06:40;10.40;99.90
21712;DHT22;11017;53.552;9.910;2023-04-29T01:09:23;10.40;99.90
21712;DHT22;11017;53.552;9.910;2023-04-29T01:11:57;10.40;99.90
21712;DHT22;11017;53.552;9.910;2023-04-29T01:14:29;10.40;99.90
21712;DHT22;11017;53.552;9.910;2023-04-29T01:16:59;10.40;99.90
21712;DHT22;11017;53.552;9.910;2023-04-29T01:19:38;10.40;99.90
21712;DHT22;11017;53.552;9.910;2023-04-29T01:22:05;10.30;99.90
21712;DHT22;11017;53.552;9.910;2023-04-29T01:24:34;10.40;99.90
21712;DHT22;11017;53.552;9.910;2023-04-29T01:27:04;10.30;99.90
21712;DHT22;11017;53.552;9.910;2023-04-29T01:29:43;10.30;99.90
21712;DHT22;11017;53.552;9.910;2023-04-29T01:32:15;10.30;99.90
21712;DHT22;11017;53.552;9.910;2023-04-29T01:34:48;10.30;99.90
21712;DHT22;11017;53.552;9.910;2023-04-29T01:37:21;10.30;99.90
21712;DHT22;11017;53.552;9.910;2023-04-29T01:39:56;10.30;99.90
21712;DHT22;11017;53.552;9.910;2023-04-29T01:42:33;10.30;99.90
21712;DHT22;11017;53.552;9.910;2023-04-29T01:45:05;10.30;99.90
21712;DHT22;11017;53.552;9.910;2023-04-29T01:47:33;10.40;99.90
21712;DHT22;11017;53.552;9.910;2023-04-29T01:50:01;10.30;99.90
21712;DHT22;11017;53.552;9.910;2023-04-29T01:52:28;10.30;99.90
21712;DHT22;11017;53.552;9.910;2023-04-29T01:54:56;10.40;99.90
21712;DHT22;11017;53.552;9.910;2023-04-29T01:57:23;10.40;99.90
21712;DHT22;11017;53.552;9.910;2023-04-29T01:59:50;10.40;99.90
21712;DHT22;11017;53.552;9.910;2023-04-29T02:02:17;10.40;99.90
21712;DHT22;11017;53.552;9.910;2023-04-29T02:04:46;10.40;99.90
21712;DHT22;11017;53.552;9.910;2023-04-29T02:07:15;10.40;99.90
21712;DHT22;11017;53.552;9.910;2023-04-29T02:09:42;10.40;99.90
21712;DHT22;11017;53.552;9.910;2023-04-29T02:12:10;10.40;99.90
21712;DHT22;11017;53.552;9.910;2023-04-29T02:14:37;10.40;99.90
21712;DHT22;11017;53.552;9.910;2023-04-29T02:17:04;10.30;99.90
21712;DHT22;11017;53.552;9.910;2023-04-29T02:19:31;10.30;99.90
21712;DHT22;11017;53.552;9.910;2023-04-29T02:21:57;10.40;99.90
21712;DHT22;11017;53.552;9.910;2023-04-29T02:24:24;10.30;99.90
21712;DHT22;11017;53.552;9.910;2023-04-29T02:26:51;10.20;99.90
21712;DHT22;11017;53.552;9.910;2023-04-29T02:29:20;10.20;99.90
21712;DHT22;11017;53.552;9.910;2023-04-29T02:31:47;10.30;99.90
21712;DHT22;11017;53.552;9.910;2023-04-29T02:34:14;10.30;99.90
21712;DHT22;11017;53.552;9.910;2023-04-29T02:36:41;10.30;99.90
21712;DHT22;11017;53.552;9.910;2023-04-29T02:39:08;10.40;99.90
21712;DHT22;11017;53.552;9.910;2023-04-29T02:41:35;10.10;99.90
21712;DHT22;11017;53.552;9.910;2023-04-29T02:44:02;10.00;99.90
21712;DHT22;11017;53.552;9.910;2023-04-29T02:46:30;10.00;99.90
21712;DHT22;11017;53.552;9.910;2023-04-29T02:48:58;10.00;99.90
21712;DHT22;11017;53.552;9.910;2023-04-29T02:51:25;10.10;99.90
21712;DHT22;11017;53.552;9.910;2023-04-29T02:53:52;10.10;99.90
21712;DHT22;11017;53.552;9.910;2023-04-29T02:56:19;10.00;99.90
21712;DHT22;11017;53.552;9.910;2023-04-29T02:58:46;10.10;99.90
21712;DHT22;11017;53.552;9.910;2023-04-29T03:01:13;10.20;99.90
21712;DHT22;11017;53.552;9.910;2023-04-29T03:03:41;10.00;99.90
21712;DHT22;11017;53.552;9.910;2023-04-29T03:06:08;10.10;99.90
21712;DHT22;11017;53.552;9.910;2023-04-29T03:08:36;10.20;99.90
21712;DHT22;11017;53.552;9.910;2023-04-29T03:11:02;10.30;99.90
21712;DHT22;11017;53.552;9.910;2023-04-29T03:13:29;10.10;99.90
21712;DHT22;11017;53.552;9.910;2023-04-29T03:15:56;10.00;99.90
21712;DHT22;11017;53.552;9.910;2023-04-29T03:18:25;9.90;99.90
21712;DHT22;11017;53.552;9.910;2023-04-29T03:20:53;9.90;99.90
21712;DHT22;11017;53.552;9.910;2023-04-29T03:23:20;9.70;99.90
21712;DHT22;11017;53.552;9.910;2023-04-29T03:25:47;9.70;99.90
21712;DHT22;11017;53.552;9.910;2023-04-29T03:28:14;9.70;99.90
21712;DHT22;11017;53.552;9.910;2023-04-29T03:30:41;9.70;99.90
21712;DHT22;11017;53.552;9.910;2023-04-29T03:33:08;9.70;99.90
21712;DHT22;11017;53.552;9.910;2023-04-29T03:35:35;9.80;99.90
21712;DHT22;11017;53.552;9.910;2023-04-29T03:38:03;9.80;99.90
21712;DHT22;11017;53.552;9.910;2023-04-29T03:40:30;9.90;99.90
21712;DHT22;11017;53.552;9.910;2023-04-29T03:42:57;9.80;99.90
21712;DHT22;11017;53.552;9.910;2023-04-29T03:45:25;9.60;99.90
21712;DHT22;11017;53.552;9.910;2023-04-29T03:47:52;9.60;99.90
21712;DHT22;11017;53.552;9.910;2023-04-29T03:50:19;9.70;99.90
21712;DHT22;11017;53.552;9.910;2023-04-29T03:52:46;9.80;99.90
21712;DHT22;11017;53.552;9.910;2023-04-29T03:55:14;9.80;99.90
21712;DHT22;11017;53.552;9.910;2023-04-29T03:57:41;9.80;99.90
21712;DHT22;11017;53.552;9.910;2023-04-29T04:00:09;10.00;99.90
21712;DHT22;11017;53.552;9.910;2023-04-29T04:02:36;10.10;99.90
21712;DHT22;11017;53.552;9.910;2023-04-29T04:05:03;10.10;99.90
21712;DHT22;11017;53.552;9.910;2023-04-29T04:07:30;10.10;99.90
21712;DHT22;11017;53.552;9.910;2023-04-29T04:09:57;10.10;99.90
21712;DHT22;11017;53.552;9.910;2023-04-29T04:12:25;10.00;99.90
21712;DHT22;11017;53.552;9.910;2023-04-29T04:14:52;10.00;99.90
21712;DHT22;11017;53.552;9.910;2023-04-29T04:17:20;9.90;99.90
21712;DHT22;11017;53.552;9.910;2023-04-29T04:19:46;9.70;99.90
21712;DHT22;11017;53.552;9.910;2023-04-29T04:22:13;9.80;99.90
21712;DHT22;11017;53.552;9.910;2023-04-29T04:24:41;9.80;99.90
21712;DHT22;11017;53.552;9.910;2023-04-29T04:27:08;9.90;99.90
21712;DHT22;11017;53.552;9.910;2023-04-29T04:29:37;9.80;99.90
21712;DHT22;11017;53.552;9.910;2023-04-29T04:32:04;9.60;99.90
21712;DHT22;11017;53.552;9.910;2023-04-29T04:34:31;9.50;99.90
21712;DHT22;11017;53.552;9.910;2023-04-29T04:36:58;9.50;99.90
21712;DHT22;11017;53.552;9.910;2023-04-29T04:39:25;9.50;99.90
21712;DHT22;11017;53.552;9.910;2023-04-29T04:41:52;9.60;99.90
21712;DHT22;11017;53.552;9.910;2023-04-29T04:44:18;9.60;99.90
21712;DHT22;11017;53.552;9.910;2023-04-29T04:46:47;9.70;99.90
21712;DHT22;11017;53.552;9.910;2023-04-29T04:49:15;9.90;99.90
21712;DHT22;11017;53.552;9.910;2023-04-29T04:51:43;9.90;99.90
21712;DHT22;11017;53.552;9.910;2023-04-29T04:54:10;10.00;99.90
21712;DHT22;11017;53.552;9.910;2023-04-29T04:56:38;10.00;99.90
21712;DHT22;11017;53.552;9.910;2023-04-29T04:59:04;10.00;99.90
21712;DHT22;11017;53.552;9.910;2023-04-29T05:01:31;9.90;99.90
21712;DHT22;11017;53.552;9.910;2023-04-29T05:04:00;9.90;99.90
21712;DHT22;11017;53.552;9.910;2023-04-29T05:06:28;9.80;99.90
21712;DHT22;11017;53.552;9.910;2023-04-29T05:08:55;9.90;99.90
21712;DHT22;11017;53.552;9.910;2023-04-29T05:11:22;9.90;99.90
21712;DHT22;11017;53.552;9.910;2023-04-29T05:13:49;9.80;99.90
21712;DHT22;11017;53.552;9.910;2023-04-29T05:16:15;9.90;99.90
21712;DHT22;11017;53.552;9.910;2023-04-29T05:18:43;10.00;99.90
21712;DHT22;11017;53.552;9.910;2023-04-29T05:21:12;10.00;99.90
21712;DHT22;11017;53.552;9.910;2023-04-29T05:23:39;10.10;99.90
21712;DHT22;11017;53.552;9.910;2023-04-29T05:26:06;10.20;99.90
21712;DHT22;11017;53.552;9.910;2023-04-29T05:28:33;10.30;99.90
21712;DHT22;11017;53.552;9.910;2023-04-29T05:31:00;10.50;99.90
21712;DHT22;11017;53.552;9.910;2023-04-29T05:33:27;10.70;99.90
21712;DHT22;11017;53.552;9.910;2023-04-29T05:35:54;10.80;99.90
21712;DHT22;11017;53.552;9.910;2023-04-29T05:38:22;10.80;99.90
21712;DHT22;11017;53.552;9.910;2023-04-29T05:40:53;11.00;99.90
21712;DHT22;11017;53.552;9.910;2023-04-29T05:43:20;11.20;99.90
21712;DHT22;11017;53.552;9.910;2023-04-29T05:45:47;11.10;99.90
21712;DHT22;11017;53.552;9.910;2023-04-29T05:48:14;11.30;99.90
21712;DHT22;11017;53.552;9.910;2023-04-29T05:50:41;11.10;99.90
21712;DHT22;11017;53.552;9.910;2023-04-29T05:53:08;11.10;99.90
21712;DHT22;11017;53.552;9.910;2023-04-29T05:55:38;10.90;99.90
21712;DHT22;11017;53.552;9.910;2023-04-29T05:58:05;10.90;99.90
21712;DHT22;11017;53.552;9.910;2023-04-29T06:00:32;10.90;99.90
21712;DHT22;11017;53.552;9.910;2023-04-29T06:02:58;10.90;99.90
21712;DHT22;11017;53.552;9.910;2023-04-29T06:05:25;11.00;99.90
21712;DHT22;11017;53.552;9.910;2023-04-29T06:07:52;11.20;99.90
21712;DHT22;11017;53.552;9.910;2023-04-29T06:10:19;11.30;99.90
21712;DHT22;11017;53.552;9.910;2023-04-29T06:12:47;11.40;99.90
21712;DHT22;11017;53.552;9.910;2023-04-29T06:15:16;11.40;99.90
21712;DHT22;11017;53.552;9.910;2023-04-29T06:17:43;11.40;99.90
21712;DHT22;11017;53.552;9.910;2023-04-29T06:20:10;11.50;99.90
21712;DHT22;11017;53.552;9.910;2023-04-29T06:22:37;11.50;99.90
21712;DHT22;11017;53.552;9.910;2023-04-29T06:25:05;11.50;99.90
21712;DHT22;11017;53.552;9.910;2023-04-29T06:27:32;11.50;99.90
21712;DHT22;11017;53.552;9.910;2023-04-29T06:30:00;11.40;99.90
21712;DHT22;11017;53.552;9.910;2023-04-29T06:32:27;11.40;99.90
21712;DHT22;11017;53.552;9.910;2023-04-29T06:34:54;11.40;99.90
21712;DHT22;11017;53.552;9.910;2023-04-29T06:37:21;11.40;99.90
21712;DHT22;11017;53.552;9.910;2023-04-29T06:39:47;11.50;99.90
21712;DHT22;11017;53.552;9.910;2023-04-29T06:42:14;11.60;99.90
21712;DHT22;11017;53.552;9.910;2023-04-29T06:44:42;11.60;99.90
21712;DHT22;11017;53.552;9.910;2023-04-29T06:47:10;11.70;99.90
21712;DHT22;11017;53.552;9.910;2023-04-29T06:49:37;11.80;99.90
21712;DHT22;11017;53.552;9.910;2023-04-29T06:52:04;11.80;99.90
21712;DHT22;11017;53.552;9.910;2023-04-29T06:54:31;12.10;99.90
21712;DHT22;11017;53.552;9.910;2023-04-29T06:56:58;12.20;99.90
21712;DHT22;11017;53.552;9.910;2023-04-29T06:59:25;12.30;99.90
21712;DHT22;11017;53.552;9.910;2023-04-29T07:01:52;12.10;99.90
21712;DHT22;11017;53.552;9.910;2023-04-29T07:04:20;11.90;99.90
21712;DHT22;11017;53.552;9.910;2023-04-29T07:06:47;12.00;99.90
21712;DHT22;11017;53.552;9.910;2023-04-29T07:09:14;12.30;99.90
21712;DHT22;11017;53.552;9.910;2023-04-29T07:11:41;12.40;99.90
21712;DHT22;11017;53.552;9.910;2023-04-29T07:14:08;12.40;99.90
21712;DHT22;11017;53.552;9.910;2023-04-29T07:16:34;12.40;99.90
21712;DHT22;11017;53.552;9.910;2023-04-29T07:19:01;12.50;99.90
21712;DHT22;11017;53.552;9.910;2023-04-29T07:21:30;12.70;99.90
21712;DHT22;11017;53.552;9.910;2023-04-29T07:23:57;12.70;99.90
21712;DHT22;11017;53.552;9.910;2023-04-29T07:26:25;12.80;99.90
21712;DHT22;11017;53.552;9.910;2023-04-29T07:28:52;12.90;99.90
21712;DHT22;11017;53.552;9.910;2023-04-29T07:31:19;12.70;99.90
21712;DHT22;11017;53.552;9.910;2023-04-29T07:33:48;12.70;99.90
21712;DHT22;11017;53.552;9.910;2023-04-29T07:36:15;12.60;99.90
21712;DHT22;11017;53.552;9.910;2023-04-29T07:38:43;12.70;99.90
21712;DHT22;11017;53.552;9.910;2023-04-29T07:41:10;12.60;99.90
21712;DHT22;11017;53.552;9.910;2023-04-29T07:43:37;12.70;99.90
21712;DHT22;11017;53.552;9.910;2023-04-29T07:46:04;12.90;99.90
21712;DHT22;11017;53.552;9.910;2023-04-29T07:48:35;12.90;99.90
21712;DHT22;11017;53.552;9.910;2023-04-29T07:51:03;12.90;99.90
21712;DHT22;11017;53.552;9.910;2023-04-29T07:53:31;13.20;99.90
21712;DHT22;11017;53.552;9.910;2023-04-29T07:56:04;13.30;99.90
21712;DHT22;11017;53.552;9.910;2023-04-29T07:58:31;13.50;99.90
21712;DHT22;11017;53.552;9.910;2023-04-29T08:01:04;13.50;99.90
21712;DHT22;11017;53.552;9.910;2023-04-29T08:03:31;13.60;99.90
21712;DHT22;11017;53.552;9.910;2023-04-29T08:06:00;14.00;99.90
21712;DHT22;11017;53.552;9.910;2023-04-29T08:08:28;14.60;99.90
21712;DHT22;11017;53.552;9.910;2023-04-29T08:10:55;15.10;99.90
21712;DHT22;11017;53.552;9.910;2023-04-29T08:13:23;15.40;99.90
21712;DHT22;11017;53.552;9.910;2023-04-29T08:15:50;15.40;99.90
21712;DHT22;11017;53.552;9.910;2023-04-29T08:18:18;15.50;99.90
21712;DHT22;11017;53.552;9.910;2023-04-29T08:20:46;15.80;99.90
21712;DHT22;11017;53.552;9.910;2023-04-29T08:23:13;15.70;99.90
21712;DHT22;11017;53.552;9.910;2023-04-29T08:25:41;15.30;99.90
21712;DHT22;11017;53.552;9.910;2023-04-29T08:28:11;15.10;99.90
21712;DHT22;11017;53.552;9.910;2023-04-29T08:30:40;15.10;99.90
21712;DHT22;11017;53.552;9.910;2023-04-29T08:33:07;14.90;99.90
21712;DHT22;11017;53.552;9.910;2023-04-29T08:35:34;14.60;99.90
21712;DHT22;11017;53.552;9.910;2023-04-29T08:38:03;14.60;99.90
21712;DHT22;11017;53.552;9.910;2023-04-29T08:40:33;14.60;99.90
21712;DHT22;11017;53.552;9.910;2023-04-29T08:43:02;14.60;99.90
21712;DHT22;11017;53.552;9.910;2023-04-29T08:45:30;14.60;99.90
21712;DHT22;11017;53.552;9.910;2023-04-29T08:48:00;14.80;99.90
21712;DHT22;11017;53.552;9.910;2023-04-29T08:50:29;14.90;99.90
21712;DHT22;11017;53.552;9.910;2023-04-29T08:52:56;15.00;99.90
21712;DHT22;11017;53.552;9.910;2023-04-29T08:55:23;15.40;99.90
21712;DHT22;11017;53.552;9.910;2023-04-29T08:57:53;15.50;99.90
21712;DHT22;11017;53.552;9.910;2023-04-29T09:00:21;16.20;99.90
21712;DHT22;11017;53.552;9.910;2023-04-29T09:02:50;16.90;99.90
21712;DHT22;11017;53.552;9.910;2023-04-29T09:05:19;17.70;99.90
21712;DHT22;11017;53.552;9.910;2023-04-29T09:07:46;18.50;99.90
21712;DHT22;11017;53.552;9.910;2023-04-29T09:10:15;19.20;99.90
21712;DHT22;11017;53.552;9.910;2023-04-29T09:12:42;19.70;99.90
21712;DHT22;11017;53.552;9.910;2023-04-29T09:15:09;20.00;99.90
21712;DHT22;11017;53.552;9.910;2023-04-29T09:17:40;20.00;99.90
21712;DHT22;11017;53.552;9.910;2023-04-29T09:20:28;20.10;99.90
21712;DHT22;11017;53.552;9.910;2023-04-29T09:22:56;21.30;99.90
21712;DHT22;11017;53.552;9.910;2023-04-29T09:25:23;21.90;99.90
21712;DHT22;11017;53.552;9.910;2023-04-29T09:27:52;22.10;99.90
21712;DHT22;11017;53.552;9.910;2023-04-29T09:30:18;21.30;99.90
21712;DHT22;11017;53.552;9.910;2023-04-29T09:33:03;21.90;99.90
21712;DHT22;11017;53.552;9.910;2023-04-29T09:35:32;22.20;98.40
21712;DHT22;11017;53.552;9.910;2023-04-29T09:38:10;21.70;97.50
21712;DHT22;11017;53.552;9.910;2023-04-29T09:40:38;21.30;98.00
21712;DHT22;11017;53.552;9.910;2023-04-29T09:43:11;21.60;98.40
21712;DHT22;11017;53.552;9.910;2023-04-29T09:45:40;22.60;99.40
21712;DHT22;11017;53.552;9.910;2023-04-29T09:48:08;23.30;98.50
21712;DHT22;11017;53.552;9.910;2023-04-29T09:50:37;24.00;96.50
21712;DHT22;11017;53.552;9.910;2023-04-29T09:53:05;23.40;94.50
21712;DHT22;11017;53.552;9.910;2023-04-29T09:55:33;23.80;93.60
21712;DHT22;11017;53.552;9.910;2023-04-29T09:58:00;24.10;94.80
21712;DHT22;11017;53.552;9.910;2023-04-29T10:00:30;24.60;92.60
21712;DHT22;11017;53.552;9.910;2023-04-29T10:02:58;25.20;91.90
21712;DHT22;11017;53.552;9.910;2023-04-29T10:05:27;25.20;91.10
21712;DHT22;11017;53.552;9.910;2023-04-29T10:07:57;25.50;89.00
21712;DHT22;11017;53.552;9.910;2023-04-29T10:10:26;25.00;88.30
21712;DHT22;11017;53.552;9.910;2023-04-29T10:12:54;25.10;85.20
21712;DHT22;11017;53.552;9.910;2023-04-29T10:15:26;24.60;88.70
21712;DHT22;11017;53.552;9.910;2023-04-29T10:17:58;24.10;86.50
21712;DHT22;11017;53.552;9.910;2023-04-29T10:20:28;24.30;88.00
21712;DHT22;11017;53.552;9.910;2023-04-29T10:22:57;25.00;88.50
21712;DHT22;11017;53.552;9.910;2023-04-29T10:25:25;25.60;87.20
21712;DHT22;11017;53.552;9.910;2023-04-29T10:27:54;25.50;86.50
21712;DHT22;11017;53.552;9.910;2023-04-29T10:30:21;26.10;86.10
21712;DHT22;11017;53.552;9.910;2023-04-29T10:32:49;25.90;82.80
21712;DHT22;11017;53.552;9.910;2023-04-29T10:35:17;25.30;79.70
21712;DHT22;11017;53.552;9.910;2023-04-29T10:37:46;25.10;79.10
21712;DHT22;11017;53.552;9.910;2023-04-29T10:40:17;25.30;81.00
21712;DHT22;11017;53.552;9.910;2023-04-29T10:42:47;25.30;81.20
21712;DHT22;11017;53.552;9.910;2023-04-29T10:45:24;25.20;80.70
21712;DHT22;11017;53.552;9.910;2023-04-29T10:48:14;25.10;80.30
21712;DHT22;11017;53.552;9.910;2023-04-29T10:51:02;25.60;78.80
21712;DHT22;11017;53.552;9.910;2023-04-29T10:53:29;25.40;77.90
21712;DHT22;11017;53.552;9.910;2023-04-29T10:55:58;25.50;78.20
21712;DHT22;11017;53.552;9.910;2023-04-29T10:58:40;25.10;78.50
21712;DHT22;11017;53.552;9.910;2023-04-29T11:01:10;25.40;78.80
21712;DHT22;11017;53.552;9.910;2023-04-29T11:03:52;25.60;78.30
21712;DHT22;11017;53.552;9.910;2023-04-29T11:06:37;25.30;76.60
21712;DHT22;11017;53.552;9.910;2023-04-29T11:09:08;23.20;79.50
21712;DHT22;11017;53.552;9.910;2023-04-29T11:11:46;23.20;79.50
21712;DHT22;11017;53.552;9.910;2023-04-29T11:14:14;23.20;80.80
21712;DHT22;11017;53.552;9.910;2023-04-29T11:16:48;23.30;82.10
21712;DHT22;11017;53.552;9.910;2023-04-29T11:19:18;24.30;82.10
21712;DHT22;11017;53.552;9.910;2023-04-29T11:21:46;24.30;79.60
21712;DHT22;11017;53.552;9.910;2023-04-29T11:24:13;24.00;80.30
21712;DHT22;11017;53.552;9.910;2023-04-29T11:26:43;25.10;80.70
21712;DHT22;11017;53.552;9.910;2023-04-29T11:29:11;24.20;78.30
21712;DHT22;11017;53.552;9.910;2023-04-29T11:31:38;23.00;81.00
21712;DHT22;11017;53.552;9.910;2023-04-29T11:34:05;23.70;81.00
21712;DHT22;11017;53.552;9.910;2023-04-29T11:36:34;23.60;80.70
21712;DHT22;11017;53.552;9.910;2023-04-29T11:39:02;24.10;81.50
21712;DHT22;11017;53.552;9.910;2023-04-29T11:41:30;25.10;79.60
21712;DHT22;11017;53.552;9.910;2023-04-29T11:43:58;24.30;78.60
21712;DHT22;11017;53.552;9.910;2023-04-29T11:46:29;23.50;81.40
21712;DHT22;11017;53.552;9.910;2023-04-29T11:48:57;23.30;82.40
21712;DHT22;11017;53.552;9.910;2023-04-29T11:51:24;22.70;80.80
21712;DHT22;11017;53.552;9.910;2023-04-29T11:53:54;22.00;82.30
21712;DHT22;11017;53.552;9.910;2023-04-29T11:56:22;22.90;80.90
21712;DHT22;11017;53.552;9.910;2023-04-29T11:58:52;22.00;82.20
21712;DHT22;11017;53.552;9.910;2023-04-29T12:01:20;22.10;83.80
21712;DHT22;11017;53.552;9.910;2023-04-29T12:03:48;21.40;84.90
21712;DHT22;11017;53.552;9.910;2023-04-29T12:06:15;22.80;86.30
21712;DHT22;11017;53.552;9.910;2023-04-29T12:08:42;24.20;81.20
21712;DHT22;11017;53.552;9.910;2023-04-29T12:11:13;23.50;82.30
21712;DHT22;11017;53.552;9.910;2023-04-29T12:13:42;23.30;83.70
21712;DHT22;11017;53.552;9.910;2023-04-29T12:16:09;24.00;82.10
21712;DHT22;11017;53.552;9.910;2023-04-29T12:18:37;23.00;82.80
21712;DHT22;11017;53.552;9.910;2023-04-29T12:21:04;23.50;83.00
21712;DHT22;11017;53.552;9.910;2023-04-29T12:23:31;24.10;81.60
21712;DHT22;11017;53.552;9.910;2023-04-29T12:25:59;24.00;81.80
21712;DHT22;11017;53.552;9.910;2023-04-29T12:28:28;24.50;80.80
21712;DHT22;11017;53.552;9.910;2023-04-29T12:30:56;25.00;80.60
21712;DHT22;11017;53.552;9.910;2023-04-29T12:33:25;24.30;83.10
21712;DHT22;11017;53.552;9.910;2023-04-29T12:35:53;22.40;82.50
21712;DHT22;11017;53.552;9.910;2023-04-29T12:38:23;22.60;84.80
21712;DHT22;11017;53.552;9.910;2023-04-29T12:40:51;24.00;85.10
21712;DHT22;11017;53.552;9.910;2023-04-29T12:43:18;24.60;81.80
21712;DHT22;11017;53.552;9.910;2023-04-29T12:45:47;24.00;80.40
21712;DHT22;11017;53.552;9.910;2023-04-29T12:48:16;23.70;82.60
21712;DHT22;11017;53.552;9.910;2023-04-29T12:50:43;23.70;82.20
21712;DHT22;11017;53.552;9.910;2023-04-29T12:53:14;24.50;81.80
21712;DHT22;11017;53.552;9.910;2023-04-29T12:55:41;25.60;78.20
21712;DHT22;11017;53.552;9.910;2023-04-29T12:58:08;25.20;78.40
21712;DHT22;11017;53.552;9.910;2023-04-29T13:00:35;24.30;79.20
21712;DHT22;11017;53.552;9.910;2023-04-29T13:03:04;25.40;79.00
21712;DHT22;11017;53.552;9.910;2023-04-29T13:05:31;24.80;78.30
21712;DHT22;11017;53.552;9.910;2023-04-29T13:07:58;24.70;77.20
21712;DHT22;11017;53.552;9.910;2023-04-29T13:10:25;24.60;77.80
21712;DHT22;11017;53.552;9.910;2023-04-29T13:12:54;24.90;76.90
21712;DHT22;11017;53.552;9.910;2023-04-29T13:15:21;24.50;74.40
21712;DHT22;11017;53.552;9.910;2023-04-29T13:17:48;24.00;73.00
21712;DHT22;11017;53.552;9.910;2023-04-29T13:20:17;22.50;74.80
21712;DHT22;11017;53.552;9.910;2023-04-29T13:22:45;23.80;74.90
21712;DHT22;11017;53.552;9.910;2023-04-29T13:25:12;24.40;70.80
21712;DHT22;11017;53.552;9.910;2023-04-29T13:27:40;24.90;70.40
21712;DHT22;11017;53.552;9.910;2023-04-29T13:30:08;25.40;71.70
21712;DHT22;11017;53.552;9.910;2023-04-29T13:32:35;25.70;71.60
21712;DHT22;11017;53.552;9.910;2023-04-29T13:35:05;24.40;71.40
21712;DHT22;11017;53.552;9.910;2023-04-29T13:37:33;24.10;73.80
21712;DHT22;11017;53.552;9.910;2023-04-29T13:40:00;24.90;74.40
21712;DHT22;11017;53.552;9.910;2023-04-29T13:42:27;25.70;73.00
21712;DHT22;11017;53.552;9.910;2023-04-29T13:44:54;26.00;70.10
21712;DHT22;11017;53.552;9.910;2023-04-29T13:47:22;26.70;70.00
21712;DHT22;11017;53.552;9.910;2023-04-29T13:49:49;26.80;70.10
21712;DHT22;11017;53.552;9.910;2023-04-29T13:52:16;27.20;72.60
21712;DHT22;11017;53.552;9.910;2023-04-29T13:54:44;26.70;69.70
21712;DHT22;11017;53.552;9.910;2023-04-29T13:57:11;26.70;70.20
21712;DHT22;11017;53.552;9.910;2023-04-29T13:59:38;26.20;71.30
21712;DHT22;11017;53.552;9.910;2023-04-29T14:02:05;25.80;73.50
21712;DHT22;11017;53.552;9.910;2023-04-29T14:04:32;24.70;72.80
21712;DHT22;11017;53.552;9.910;2023-04-29T14:06:59;24.10;73.50
21712;DHT22;11017;53.552;9.910;2023-04-29T14:09:26;23.00;73.50
21712;DHT22;11017;53.552;9.910;2023-04-29T14:11:55;24.40;75.50
21712;DHT22;11017;53.552;9.910;2023-04-29T14:14:22;24.10;72.20
21712;DHT22;11017;53.552;9.910;2023-04-29T14:16:49;24.70;71.70
21712;DHT22;11017;53.552;9.910;2023-04-29T14:19:15;24.90;71.70
21712;DHT22;11017;53.552;9.910;2023-04-29T14:21:42;24.80;73.60
21712;DHT22;11017;53.552;9.910;2023-04-29T14:24:09;24.90;71.40
21712;DHT22;11017;53.552;9.910;2023-04-29T14:26:36;25.10;71.80
21712;DHT22;11017;53.552;9.910;2023-04-29T14:29:04;25.60;69.90
21712;DHT22;11017;53.552;9.910;2023-04-29T14:31:34;25.10;71.50
21712;DHT22;11017;53.552;9.910;2023-04-29T14:34:02;24.90;71.50
21712;DHT22;11017;53.552;9.910;2023-04-29T14:36:30;25.10;71.20
21712;DHT22;11017;53.552;9.910;2023-04-29T14:38:58;24.50;70.60
21712;DHT22;11017;53.552;9.910;2023-04-29T14:41:25;23.90;73.10
21712;DHT22;11017;53.552;9.910;2023-04-29T14:43:52;24.10;74.20
21712;DHT22;11017;53.552;9.910;2023-04-29T14:46:20;24.40;73.50
21712;DHT22;11017;53.552;9.910;2023-04-29T14:48:47;24.10;73.20
21712;DHT22;11017;53.552;9.910;2023-04-29T14:51:14;23.70;75.30
21712;DHT22;11017;53.552;9.910;2023-04-29T14:53:41;22.40;77.30
21712;DHT22;11017;53.552;9.910;2023-04-29T14:56:08;23.40;78.00
21712;DHT22;11017;53.552;9.910;2023-04-29T14:58:35;23.40;77.30
21712;DHT22;11017;53.552;9.910;2023-04-29T15:01:02;22.00;78.80
21712;DHT22;11017;53.552;9.910;2023-04-29T15:03:31;21.80;80.70
21712;DHT22;11017;53.552;9.910;2023-04-29T15:05:58;22.20;80.60
21712;DHT22;11017;53.552;9.910;2023-04-29T15:08:26;21.70;80.60
21712;DHT22;11017;53.552;9.910;2023-04-29T15:10:53;21.10;82.20
21712;DHT22;11017;53.552;9.910;2023-04-29T15:13:20;21.10;81.50
21712;DHT22;11017;53.552;9.910;2023-04-29T15:15:48;20.90;82.70
21712;DHT22;11017;53.552;9.910;2023-04-29T15:18:15;21.80;82.10
21712;DHT22;11017;53.552;9.910;2023-04-29T15:20:43;22.90;79.40
21712;DHT22;11017;53.552;9.910;2023-04-29T15:23:10;23.10;79.50
21712;DHT22;11017;53.552;9.910;2023-04-29T15:25:37;21.90;79.20
21712;DHT22;11017;53.552;9.910;2023-04-29T15:28:04;22.00;79.50
21712;DHT22;11017;53.552;9.910;2023-04-29T15:30:32;20.70;80.30
21712;DHT22;11017;53.552;9.910;2023-04-29T15:32:58;19.40;83.80
21712;DHT22;11017;53.552;9.910;2023-04-29T15:35:25;18.00;85.80
21712;DHT22;11017;53.552;9.910;2023-04-29T15:37:54;16.60;90.20